sensor_id;sensor_type;location;lat;lon;timestamp;P1;durP1;ratioP1;P2;durP2;ratioP2
37943;SDS011;23767;42.024;23.086;2023-07-13T00:02:14;8.02;;;4.47;;
37943;SDS011;23767;42.024;23.086;2023-07-13T00:04:40;7.75;;;4.53;;
37943;SDS011;23767;42.024;23.086;2023-07-13T00:07:06;7.68;;;4.97;;
37943;SDS011;23767;42.024;23.086;2023-07-13T00:09:33;7.05;;;4.65;;
37943;SDS011;23767;42.024;23.086;2023-07-13T00:11:59;7.07;;;4.30;;
37943;SDS011;23767;42.024;23.086;2023-07-13T00:14:25;6.75;;;5.13;;
37943;SDS011;23767;42.024;23.086;2023-07-13T00:16:51;8.23;;;5.00;;
37943;SDS011;23767;42.024;23.086;2023-07-13T00:19:18;7.68;;;4.75;;
37943;SDS011;23767;42.024;23.086;2023-07-13T00:21:44;7.40;;;4.78;;
37943;SDS011;23767;42.024;23.086;2023-07-13T00:24:11;6.93;;;4.65;;
37943;SDS011;23767;42.024;23.086;2023-07-13T00:26:41;7.40;;;4.97;;
37943;SDS011;23767;42.024;23.086;2023-07-13T00:29:11;6.47;;;4.47;;
37943;SDS011;23767;42.024;23.086;2023-07-13T00:31:37;7.95;;;4.88;;
37943;SDS011;23767;42.024;23.086;2023-07-13T00:34:03;8.68;;;4.80;;
37943;SDS011;23767;42.024;23.086;2023-07-13T00:36:29;10.77;;;5.15;;
37943;SDS011;23767;42.024;23.086;2023-07-13T00:38:55;6.30;;;5.00;;
37943;SDS011;23767;42.024;23.086;2023-07-13T00:41:22;8.63;;;5.05;;
37943;SDS011;23767;42.024;23.086;2023-07-13T00:43:48;8.40;;;4.55;;
37943;SDS011;23767;42.024;23.086;2023-07-13T00:48:40;10.32;;;5.15;;
37943;SDS011;23767;42.024;23.086;2023-07-13T00:51:06;7.70;;;4.85;;
37943;SDS011;23767;42.024;23.086;2023-07-13T00:53:32;8.20;;;5.00;;
37943;SDS011;23767;42.024;23.086;2023-07-13T00:55:59;6.43;;;4.57;;
37943;SDS011;23767;42.024;23.086;2023-07-13T00:58:26;8.15;;;4.97;;
37943;SDS011;23767;42.024;23.086;2023-07-13T01:00:52;7.50;;;4.72;;
37943;SDS011;23767;42.024;23.086;2023-07-13T01:03:19;7.63;;;4.85;;
37943;SDS011;23767;42.024;23.086;2023-07-13T01:05:46;6.75;;;5.00;;
37943;SDS011;23767;42.024;23.086;2023-07-13T01:08:12;6.18;;;4.32;;
37943;SDS011;23767;42.024;23.086;2023-07-13T01:10:38;7.28;;;5.32;;
37943;SDS011;23767;42.024;23.086;2023-07-13T01:13:09;9.82;;;5.28;;
37943;SDS011;23767;42.024;23.086;2023-07-13T01:15:36;6.85;;;4.80;;
37943;SDS011;23767;42.024;23.086;2023-07-13T01:18:03;7.18;;;4.90;;
37943;SDS011;23767;42.024;23.086;2023-07-13T01:20:30;7.70;;;5.05;;
37943;SDS011;23767;42.024;23.086;2023-07-13T01:22:58;6.80;;;4.90;;
37943;SDS011;23767;42.024;23.086;2023-07-13T01:25:24;7.20;;;4.85;;
37943;SDS011;23767;42.024;23.086;2023-07-13T01:27:50;7.93;;;4.45;;
37943;SDS011;23767;42.024;23.086;2023-07-13T01:30:16;8.13;;;5.25;;
37943;SDS011;23767;42.024;23.086;2023-07-13T01:32:42;11.20;;;5.05;;
37943;SDS011;23767;42.024;23.086;2023-07-13T01:35:08;7.07;;;4.93;;
37943;SDS011;23767;42.024;23.086;2023-07-13T01:37:37;6.68;;;4.70;;
37943;SDS011;23767;42.024;23.086;2023-07-13T01:40:04;6.35;;;4.70;;
37943;SDS011;23767;42.024;23.086;2023-07-13T01:42:30;9.80;;;5.10;;
37943;SDS011;23767;42.024;23.086;2023-07-13T01:44:56;8.27;;;5.40;;
37943;SDS011;23767;42.024;23.086;2023-07-13T01:47:22;7.43;;;4.95;;
37943;SDS011;23767;42.024;23.086;2023-07-13T01:49:48;7.85;;;5.28;;
37943;SDS011;23767;42.024;23.086;2023-07-13T01:52:16;8.80;;;5.35;;
37943;SDS011;23767;42.024;23.086;2023-07-13T01:54:42;8.60;;;5.20;;
37943;SDS011;23767;42.024;23.086;2023-07-13T01:57:08;6.68;;;5.00;;
37943;SDS011;23767;42.024;23.086;2023-07-13T01:59:34;8.35;;;4.65;;
37943;SDS011;23767;42.024;23.086;2023-07-13T02:02:00;6.57;;;4.85;;
37943;SDS011;23767;42.024;23.086;2023-07-13T02:04:26;9.38;;;5.50;;
37943;SDS011;23767;42.024;23.086;2023-07-13T02:06:52;8.63;;;5.30;;
37943;SDS011;23767;42.024;23.086;2023-07-13T02:09:20;7.82;;;4.70;;
37943;SDS011;23767;42.024;23.086;2023-07-13T02:11:46;7.25;;;4.80;;
37943;SDS011;23767;42.024;23.086;2023-07-13T02:14:13;10.05;;;5.25;;
37943;SDS011;23767;42.024;23.086;2023-07-13T02:16:40;9.00;;;5.30;;
37943;SDS011;23767;42.024;23.086;2023-07-13T02:19:07;8.13;;;5.13;;
37943;SDS011;23767;42.024;23.086;2023-07-13T02:21:33;6.75;;;4.82;;
37943;SDS011;23767;42.024;23.086;2023-07-13T02:23:59;8.13;;;4.78;;
37943;SDS011;23767;42.024;23.086;2023-07-13T02:26:25;8.80;;;4.80;;
37943;SDS011;23767;42.024;23.086;2023-07-13T02:28:51;8.95;;;5.40;;
37943;SDS011;23767;42.024;23.086;2023-07-13T02:31:18;7.55;;;5.75;;
37943;SDS011;23767;42.024;23.086;2023-07-13T02:33:44;6.93;;;5.13;;
37943;SDS011;23767;42.024;23.086;2023-07-13T02:36:10;7.55;;;5.38;;
37943;SDS011;23767;42.024;23.086;2023-07-13T02:38:37;8.00;;;5.22;;
37943;SDS011;23767;42.024;23.086;2023-07-13T02:41:04;8.45;;;4.90;;
37943;SDS011;23767;42.024;23.086;2023-07-13T02:43:30;9.40;;;4.90;;
37943;SDS011;23767;42.024;23.086;2023-07-13T02:45:56;10.23;;;5.43;;
37943;SDS011;23767;42.024;23.086;2023-07-13T02:48:25;9.65;;;5.15;;
37943;SDS011;23767;42.024;23.086;2023-07-13T02:50:52;7.13;;;5.15;;
37943;SDS011;23767;42.024;23.086;2023-07-13T02:53:18;10.30;;;5.38;;
37943;SDS011;23767;42.024;23.086;2023-07-13T02:55:44;8.13;;;5.32;;
37943;SDS011;23767;42.024;23.086;2023-07-13T02:58:12;6.72;;;5.18;;
37943;SDS011;23767;42.024;23.086;2023-07-13T03:00:41;9.07;;;5.38;;
37943;SDS011;23767;42.024;23.086;2023-07-13T03:03:07;7.60;;;5.00;;
37943;SDS011;23767;42.024;23.086;2023-07-13T03:05:33;7.90;;;5.30;;
37943;SDS011;23767;42.024;23.086;2023-07-13T03:07:59;7.10;;;4.82;;
37943;SDS011;23767;42.024;23.086;2023-07-13T03:10:25;8.65;;;5.43;;
37943;SDS011;23767;42.024;23.086;2023-07-13T03:12:51;7.18;;;5.32;;
37943;SDS011;23767;42.024;23.086;2023-07-13T03:15:17;6.75;;;4.97;;
37943;SDS011;23767;42.024;23.086;2023-07-13T03:17:43;8.45;;;5.40;;
37943;SDS011;23767;42.024;23.086;2023-07-13T03:20:10;8.85;;;5.47;;
37943;SDS011;23767;42.024;23.086;2023-07-13T03:22:36;8.90;;;5.30;;
37943;SDS011;23767;42.024;23.086;2023-07-13T03:25:03;7.85;;;5.72;;
37943;SDS011;23767;42.024;23.086;2023-07-13T03:27:29;8.20;;;5.18;;
37943;SDS011;23767;42.024;23.086;2023-07-13T03:29:55;8.77;;;5.85;;
37943;SDS011;23767;42.024;23.086;2023-07-13T03:32:21;9.90;;;5.95;;
37943;SDS011;23767;42.024;23.086;2023-07-13T03:34:47;10.00;;;5.70;;
37943;SDS011;23767;42.024;23.086;2023-07-13T03:37:13;6.55;;;4.88;;
37943;SDS011;23767;42.024;23.086;2023-07-13T03:39:39;7.40;;;5.50;;
37943;SDS011;23767;42.024;23.086;2023-07-13T03:42:05;8.45;;;5.13;;
37943;SDS011;23767;42.024;23.086;2023-07-13T03:44:31;11.60;;;5.50;;
37943;SDS011;23767;42.024;23.086;2023-07-13T03:46:57;7.38;;;5.00;;
37943;SDS011;23767;42.024;23.086;2023-07-13T03:49:23;7.93;;;5.07;;
37943;SDS011;23767;42.024;23.086;2023-07-13T03:51:49;7.15;;;4.80;;
37943;SDS011;23767;42.024;23.086;2023-07-13T03:54:15;7.38;;;5.32;;
37943;SDS011;23767;42.024;23.086;2023-07-13T03:56:41;11.68;;;5.65;;
37943;SDS011;23767;42.024;23.086;2023-07-13T03:59:07;10.50;;;5.53;;
37943;SDS011;23767;42.024;23.086;2023-07-13T04:01:34;9.55;;;5.78;;
37943;SDS011;23767;42.024;23.086;2023-07-13T04:04:00;12.48;;;6.05;;
37943;SDS011;23767;42.024;23.086;2023-07-13T04:06:27;9.45;;;5.53;;
37943;SDS011;23767;42.024;23.086;2023-07-13T04:08:56;8.85;;;5.50;;
37943;SDS011;23767;42.024;23.086;2023-07-13T04:11:22;8.32;;;5.07;;
37943;SDS011;23767;42.024;23.086;2023-07-13T04:13:49;9.30;;;5.90;;
37943;SDS011;23767;42.024;23.086;2023-07-13T04:16:16;11.60;;;6.38;;
37943;SDS011;23767;42.024;23.086;2023-07-13T04:18:42;7.75;;;5.72;;
37943;SDS011;23767;42.024;23.086;2023-07-13T04:21:08;9.82;;;5.80;;
37943;SDS011;23767;42.024;23.086;2023-07-13T04:23:35;11.95;;;6.40;;
37943;SDS011;23767;42.024;23.086;2023-07-13T04:26:01;9.25;;;6.15;;
37943;SDS011;23767;42.024;23.086;2023-07-13T04:28:27;10.38;;;5.80;;
37943;SDS011;23767;42.024;23.086;2023-07-13T04:30:54;10.95;;;6.78;;
37943;SDS011;23767;42.024;23.086;2023-07-13T04:33:20;10.20;;;5.88;;
37943;SDS011;23767;42.024;23.086;2023-07-13T04:35:47;10.10;;;6.00;;
37943;SDS011;23767;42.024;23.086;2023-07-13T04:38:13;10.27;;;6.38;;
37943;SDS011;23767;42.024;23.086;2023-07-13T04:40:42;12.25;;;6.28;;
37943;SDS011;23767;42.024;23.086;2023-07-13T04:43:08;13.73;;;6.28;;
37943;SDS011;23767;42.024;23.086;2023-07-13T04:45:34;10.75;;;6.50;;
37943;SDS011;23767;42.024;23.086;2023-07-13T04:48:01;11.70;;;6.55;;
37943;SDS011;23767;42.024;23.086;2023-07-13T04:50:27;11.90;;;6.85;;
37943;SDS011;23767;42.024;23.086;2023-07-13T04:52:53;9.55;;;6.40;;
37943;SDS011;23767;42.024;23.086;2023-07-13T04:55:19;10.13;;;6.20;;
37943;SDS011;23767;42.024;23.086;2023-07-13T04:57:45;8.77;;;6.40;;
37943;SDS011;23767;42.024;23.086;2023-07-13T05:02:47;10.38;;;5.95;;
37943;SDS011;23767;42.024;23.086;2023-07-13T05:05:13;10.57;;;6.78;;
37943;SDS011;23767;42.024;23.086;2023-07-13T05:07:39;11.18;;;6.45;;
37943;SDS011;23767;42.024;23.086;2023-07-13T05:10:06;11.25;;;7.20;;
37943;SDS011;23767;42.024;23.086;2023-07-13T05:12:32;11.43;;;6.82;;
37943;SDS011;23767;42.024;23.086;2023-07-13T05:14:58;10.85;;;7.05;;
37943;SDS011;23767;42.024;23.086;2023-07-13T05:17:24;10.82;;;7.28;;
37943;SDS011;23767;42.024;23.086;2023-07-13T05:19:50;11.95;;;6.75;;
37943;SDS011;23767;42.024;23.086;2023-07-13T05:22:16;13.73;;;6.38;;
37943;SDS011;23767;42.024;23.086;2023-07-13T05:24:42;13.27;;;6.85;;
37943;SDS011;23767;42.024;23.086;2023-07-13T05:27:08;9.27;;;6.60;;
37943;SDS011;23767;42.024;23.086;2023-07-13T05:29:34;10.90;;;6.82;;
37943;SDS011;23767;42.024;23.086;2023-07-13T05:32:00;11.93;;;6.53;;
37943;SDS011;23767;42.024;23.086;2023-07-13T05:34:26;10.95;;;6.32;;
37943;SDS011;23767;42.024;23.086;2023-07-13T05:36:52;10.75;;;6.70;;
37943;SDS011;23767;42.024;23.086;2023-07-13T05:39:18;10.13;;;6.10;;
37943;SDS011;23767;42.024;23.086;2023-07-13T05:41:44;10.55;;;6.03;;
37943;SDS011;23767;42.024;23.086;2023-07-13T05:44:10;8.60;;;5.70;;
37943;SDS011;23767;42.024;23.086;2023-07-13T05:46:36;12.90;;;6.18;;
37943;SDS011;23767;42.024;23.086;2023-07-13T05:49:02;8.35;;;5.68;;
37943;SDS011;23767;42.024;23.086;2023-07-13T05:51:29;6.80;;;5.38;;
37943;SDS011;23767;42.024;23.086;2023-07-13T05:53:55;9.43;;;6.10;;
37943;SDS011;23767;42.024;23.086;2023-07-13T05:56:21;9.90;;;6.35;;
37943;SDS011;23767;42.024;23.086;2023-07-13T05:58:47;10.68;;;6.70;;
37943;SDS011;23767;42.024;23.086;2023-07-13T06:01:14;9.50;;;6.60;;
37943;SDS011;23767;42.024;23.086;2023-07-13T06:03:40;8.13;;;6.18;;
37943;SDS011;23767;42.024;23.086;2023-07-13T06:06:07;7.90;;;6.07;;
37943;SDS011;23767;42.024;23.086;2023-07-13T06:08:33;9.98;;;6.28;;
37943;SDS011;23767;42.024;23.086;2023-07-13T06:11:19;9.13;;;6.57;;
37943;SDS011;23767;42.024;23.086;2023-07-13T06:13:45;8.80;;;5.93;;
37943;SDS011;23767;42.024;23.086;2023-07-13T06:16:12;9.07;;;6.13;;
37943;SDS011;23767;42.024;23.086;2023-07-13T06:18:39;10.30;;;6.97;;
37943;SDS011;23767;42.024;23.086;2023-07-13T06:21:12;9.40;;;6.75;;
37943;SDS011;23767;42.024;23.086;2023-07-13T06:23:38;10.10;;;6.60;;
37943;SDS011;23767;42.024;23.086;2023-07-13T06:26:05;9.55;;;6.22;;
37943;SDS011;23767;42.024;23.086;2023-07-13T06:28:31;12.63;;;7.40;;
37943;SDS011;23767;42.024;23.086;2023-07-13T06:30:59;8.85;;;6.55;;
37943;SDS011;23767;42.024;23.086;2023-07-13T06:33:26;9.88;;;6.63;;
37943;SDS011;23767;42.024;23.086;2023-07-13T06:35:52;8.52;;;6.20;;
37943;SDS011;23767;42.024;23.086;2023-07-13T06:38:20;10.55;;;6.88;;
37943;SDS011;23767;42.024;23.086;2023-07-13T06:40:46;8.90;;;7.15;;
37943;SDS011;23767;42.024;23.086;2023-07-13T06:43:12;11.32;;;6.65;;
37943;SDS011;23767;42.024;23.086;2023-07-13T06:45:42;15.43;;;7.22;;
37943;SDS011;23767;42.024;23.086;2023-07-13T06:48:08;8.63;;;6.50;;
37943;SDS011;23767;42.024;23.086;2023-07-13T06:50:34;9.93;;;6.72;;
37943;SDS011;23767;42.024;23.086;2023-07-13T06:53:00;8.98;;;7.10;;
37943;SDS011;23767;42.024;23.086;2023-07-13T06:55:26;11.77;;;6.50;;
37943;SDS011;23767;42.024;23.086;2023-07-13T06:57:52;8.45;;;6.35;;
37943;SDS011;23767;42.024;23.086;2023-07-13T07:00:18;9.30;;;6.68;;
37943;SDS011;23767;42.024;23.086;2023-07-13T07:02:44;9.93;;;6.95;;
37943;SDS011;23767;42.024;23.086;2023-07-13T07:05:10;8.63;;;6.40;;
37943;SDS011;23767;42.024;23.086;2023-07-13T07:07:36;13.07;;;6.90;;
37943;SDS011;23767;42.024;23.086;2023-07-13T07:10:02;10.80;;;6.75;;
37943;SDS011;23767;42.024;23.086;2023-07-13T07:12:28;8.07;;;6.20;;
37943;SDS011;23767;42.024;23.086;2023-07-13T07:14:55;8.70;;;6.40;;
37943;SDS011;23767;42.024;23.086;2023-07-13T07:17:21;7.82;;;5.90;;
37943;SDS011;23767;42.024;23.086;2023-07-13T07:19:47;8.93;;;6.13;;
37943;SDS011;23767;42.024;23.086;2023-07-13T07:22:13;11.50;;;6.57;;
37943;SDS011;23767;42.024;23.086;2023-07-13T07:24:39;11.45;;;6.63;;
37943;SDS011;23767;42.024;23.086;2023-07-13T07:27:05;10.23;;;6.22;;
37943;SDS011;23767;42.024;23.086;2023-07-13T07:29:31;10.05;;;6.45;;
37943;SDS011;23767;42.024;23.086;2023-07-13T07:31:58;11.80;;;6.55;;
37943;SDS011;23767;42.024;23.086;2023-07-13T07:34:25;9.07;;;6.60;;
37943;SDS011;23767;42.024;23.086;2023-07-13T07:36:51;10.48;;;6.93;;
37943;SDS011;23767;42.024;23.086;2023-07-13T07:39:17;11.35;;;7.20;;
37943;SDS011;23767;42.024;23.086;2023-07-13T07:41:43;14.10;;;7.38;;
37943;SDS011;23767;42.024;23.086;2023-07-13T07:44:09;11.57;;;6.85;;
37943;SDS011;23767;42.024;23.086;2023-07-13T07:46:35;12.63;;;6.80;;
37943;SDS011;23767;42.024;23.086;2023-07-13T07:49:01;9.88;;;6.70;;
37943;SDS011;23767;42.024;23.086;2023-07-13T07:51:28;9.02;;;6.13;;
37943;SDS011;23767;42.024;23.086;2023-07-13T07:53:54;9.05;;;6.53;;
37943;SDS011;23767;42.024;23.086;2023-07-13T07:56:20;11.88;;;6.57;;
37943;SDS011;23767;42.024;23.086;2023-07-13T07:58:46;11.30;;;6.35;;
37943;SDS011;23767;42.024;23.086;2023-07-13T08:01:12;12.30;;;6.90;;
37943;SDS011;23767;42.024;23.086;2023-07-13T08:03:38;10.07;;;5.80;;
37943;SDS011;23767;42.024;23.086;2023-07-13T08:06:04;11.07;;;6.55;;
37943;SDS011;23767;42.024;23.086;2023-07-13T08:08:30;9.88;;;6.32;;
37943;SDS011;23767;42.024;23.086;2023-07-13T08:10:56;8.35;;;6.10;;
37943;SDS011;23767;42.024;23.086;2023-07-13T08:13:22;10.05;;;6.38;;
37943;SDS011;23767;42.024;23.086;2023-07-13T08:15:48;8.57;;;6.00;;
37943;SDS011;23767;42.024;23.086;2023-07-13T08:18:14;9.77;;;6.05;;
37943;SDS011;23767;42.024;23.086;2023-07-13T08:20:41;10.02;;;6.10;;
37943;SDS011;23767;42.024;23.086;2023-07-13T08:23:07;9.45;;;6.00;;
37943;SDS011;23767;42.024;23.086;2023-07-13T08:25:35;11.18;;;6.50;;
37943;SDS011;23767;42.024;23.086;2023-07-13T08:28:02;8.75;;;6.28;;
37943;SDS011;23767;42.024;23.086;2023-07-13T08:30:28;8.77;;;5.75;;
37943;SDS011;23767;42.024;23.086;2023-07-13T08:32:54;7.55;;;5.90;;
37943;SDS011;23767;42.024;23.086;2023-07-13T08:35:20;11.35;;;6.57;;
37943;SDS011;23767;42.024;23.086;2023-07-13T08:37:46;11.85;;;6.38;;
37943;SDS011;23767;42.024;23.086;2023-07-13T08:40:12;8.80;;;6.18;;
37943;SDS011;23767;42.024;23.086;2023-07-13T08:42:39;9.80;;;5.90;;
37943;SDS011;23767;42.024;23.086;2023-07-13T08:53:22;11.05;;;5.78;;
37943;SDS011;23767;42.024;23.086;2023-07-13T08:55:50;7.93;;;5.65;;
37943;SDS011;23767;42.024;23.086;2023-07-13T08:58:17;8.02;;;5.32;;
37943;SDS011;23767;42.024;23.086;2023-07-13T09:03:16;9.65;;;5.63;;
37943;SDS011;23767;42.024;23.086;2023-07-13T09:05:45;7.88;;;5.00;;
37943;SDS011;23767;42.024;23.086;2023-07-13T09:10:49;9.68;;;5.45;;
37943;SDS011;23767;42.024;23.086;2023-07-13T09:15:47;10.02;;;5.25;;
37943;SDS011;23767;42.024;23.086;2023-07-13T09:20:56;6.60;;;5.05;;
37943;SDS011;23767;42.024;23.086;2023-07-13T09:23:23;6.75;;;4.63;;
37943;SDS011;23767;42.024;23.086;2023-07-13T09:25:53;8.98;;;5.03;;
37943;SDS011;23767;42.024;23.086;2023-07-13T09:28:27;7.40;;;4.70;;
37943;SDS011;23767;42.024;23.086;2023-07-13T09:33:22;7.68;;;4.80;;
37943;SDS011;23767;42.024;23.086;2023-07-13T09:35:48;14.57;;;5.05;;
37943;SDS011;23767;42.024;23.086;2023-07-13T09:38:18;11.32;;;4.97;;
37943;SDS011;23767;42.024;23.086;2023-07-13T09:43:24;8.00;;;4.90;;
37943;SDS011;23767;42.024;23.086;2023-07-13T09:45:50;7.55;;;4.68;;
37943;SDS011;23767;42.024;23.086;2023-07-13T09:48:17;9.00;;;4.72;;
37943;SDS011;23767;42.024;23.086;2023-07-13T09:50:43;8.65;;;4.65;;
37943;SDS011;23767;42.024;23.086;2023-07-13T09:53:13;6.78;;;4.35;;
37943;SDS011;23767;42.024;23.086;2023-07-13T09:55:40;6.82;;;4.50;;
37943;SDS011;23767;42.024;23.086;2023-07-13T10:00:35;10.80;;;4.55;;
37943;SDS011;23767;42.024;23.086;2023-07-13T10:03:23;8.75;;;4.80;;
37943;SDS011;23767;42.024;23.086;2023-07-13T10:05:49;9.95;;;4.65;;
37943;SDS011;23767;42.024;23.086;2023-07-13T10:08:25;6.88;;;4.43;;
37943;SDS011;23767;42.024;23.086;2023-07-13T10:11:08;9.85;;;4.40;;
37943;SDS011;23767;42.024;23.086;2023-07-13T10:13:36;7.05;;;4.32;;
37943;SDS011;23767;42.024;23.086;2023-07-13T10:16:04;7.53;;;4.00;;
37943;SDS011;23767;42.024;23.086;2023-07-13T10:18:31;6.53;;;4.10;;
37943;SDS011;23767;42.024;23.086;2023-07-13T10:21:00;8.90;;;4.53;;
37943;SDS011;23767;42.024;23.086;2023-07-13T10:23:34;7.20;;;4.07;;
37943;SDS011;23767;42.024;23.086;2023-07-13T10:26:00;7.57;;;4.00;;
37943;SDS011;23767;42.024;23.086;2023-07-13T10:28:30;5.60;;;3.55;;
37943;SDS011;23767;42.024;23.086;2023-07-13T10:30:58;6.78;;;3.97;;
37943;SDS011;23767;42.024;23.086;2023-07-13T10:33:25;6.22;;;4.20;;
37943;SDS011;23767;42.024;23.086;2023-07-13T10:35:53;8.07;;;4.22;;
37943;SDS011;23767;42.024;23.086;2023-07-13T10:38:20;8.13;;;3.97;;
37943;SDS011;23767;42.024;23.086;2023-07-13T10:40:58;7.68;;;4.40;;
37943;SDS011;23767;42.024;23.086;2023-07-13T10:43:27;6.85;;;4.03;;
37943;SDS011;23767;42.024;23.086;2023-07-13T10:45:53;6.90;;;3.97;;
37943;SDS011;23767;42.024;23.086;2023-07-13T10:48:20;8.32;;;4.15;;
37943;SDS011;23767;42.024;23.086;2023-07-13T10:50:48;5.82;;;3.55;;
37943;SDS011;23767;42.024;23.086;2023-07-13T10:53:17;6.72;;;4.13;;
37943;SDS011;23767;42.024;23.086;2023-07-13T10:58:23;7.57;;;3.83;;
37943;SDS011;23767;42.024;23.086;2023-07-13T11:00:56;9.00;;;4.30;;
37943;SDS011;23767;42.024;23.086;2023-07-13T11:03:24;7.57;;;4.00;;
37943;SDS011;23767;42.024;23.086;2023-07-13T11:06:03;6.25;;;3.55;;
37943;SDS011;23767;42.024;23.086;2023-07-13T11:10:56;6.75;;;3.85;;
37943;SDS011;23767;42.024;23.086;2023-07-13T11:16:26;7.65;;;3.75;;
37943;SDS011;23767;42.024;23.086;2023-07-13T11:21:28;7.40;;;4.32;;
37943;SDS011;23767;42.024;23.086;2023-07-13T11:26:51;5.43;;;3.75;;
37943;SDS011;23767;42.024;23.086;2023-07-13T11:31:53;6.00;;;3.70;;
37943;SDS011;23767;42.024;23.086;2023-07-13T11:34:21;6.47;;;4.03;;
37943;SDS011;23767;42.024;23.086;2023-07-13T11:36:49;9.23;;;4.03;;
37943;SDS011;23767;42.024;23.086;2023-07-13T11:39:32;6.00;;;3.53;;
37943;SDS011;23767;42.024;23.086;2023-07-13T11:42:00;7.00;;;3.78;;
37943;SDS011;23767;42.024;23.086;2023-07-13T11:44:28;6.10;;;3.78;;
37943;SDS011;23767;42.024;23.086;2023-07-13T11:46:56;5.75;;;3.53;;
37943;SDS011;23767;42.024;23.086;2023-07-13T11:49:26;7.55;;;4.20;;
37943;SDS011;23767;42.024;23.086;2023-07-13T11:51:52;8.27;;;3.65;;
37943;SDS011;23767;42.024;23.086;2023-07-13T11:57:06;9.27;;;3.90;;
37943;SDS011;23767;42.024;23.086;2023-07-13T11:59:39;7.13;;;3.70;;
37943;SDS011;23767;42.024;23.086;2023-07-13T12:02:13;8.82;;;4.10;;
37943;SDS011;23767;42.024;23.086;2023-07-13T12:04:41;6.95;;;3.53;;
37943;SDS011;23767;42.024;23.086;2023-07-13T12:07:14;7.35;;;3.60;;
37943;SDS011;23767;42.024;23.086;2023-07-13T12:09:40;8.75;;;3.78;;
37943;SDS011;23767;42.024;23.086;2023-07-13T12:12:13;8.25;;;3.92;;
37943;SDS011;23767;42.024;23.086;2023-07-13T12:14:40;9.50;;;3.75;;
37943;SDS011;23767;42.024;23.086;2023-07-13T12:17:15;7.28;;;3.47;;
37943;SDS011;23767;42.024;23.086;2023-07-13T12:19:41;6.18;;;3.80;;
37943;SDS011;23767;42.024;23.086;2023-07-13T12:22:08;8.40;;;3.53;;
37943;SDS011;23767;42.024;23.086;2023-07-13T12:24:34;7.25;;;3.70;;
37943;SDS011;23767;42.024;23.086;2023-07-13T12:27:02;8.27;;;3.67;;
37943;SDS011;23767;42.024;23.086;2023-07-13T12:29:32;6.55;;;3.78;;
37943;SDS011;23767;42.024;23.086;2023-07-13T12:31:58;6.32;;;3.63;;
37943;SDS011;23767;42.024;23.086;2023-07-13T12:34:25;6.68;;;3.78;;
37943;SDS011;23767;42.024;23.086;2023-07-13T12:36:53;7.57;;;4.15;;
37943;SDS011;23767;42.024;23.086;2023-07-13T12:41:46;7.78;;;3.55;;
37943;SDS011;23767;42.024;23.086;2023-07-13T12:44:14;6.93;;;3.60;;
37943;SDS011;23767;42.024;23.086;2023-07-13T12:46:50;11.00;;;3.78;;
37943;SDS011;23767;42.024;23.086;2023-07-13T12:49:16;7.30;;;3.83;;
37943;SDS011;23767;42.024;23.086;2023-07-13T12:51:43;8.27;;;3.55;;
37943;SDS011;23767;42.024;23.086;2023-07-13T12:54:13;6.22;;;3.78;;
37943;SDS011;23767;42.024;23.086;2023-07-13T12:56:41;12.27;;;4.03;;
37943;SDS011;23767;42.024;23.086;2023-07-13T12:59:09;8.45;;;3.90;;
37943;SDS011;23767;42.024;23.086;2023-07-13T13:01:40;7.80;;;3.97;;
37943;SDS011;23767;42.024;23.086;2023-07-13T13:04:08;7.15;;;4.18;;
37943;SDS011;23767;42.024;23.086;2023-07-13T13:06:36;8.10;;;3.40;;
37943;SDS011;23767;42.024;23.086;2023-07-13T13:09:02;6.63;;;3.72;;
37943;SDS011;23767;42.024;23.086;2023-07-13T13:11:29;6.25;;;3.42;;
37943;SDS011;23767;42.024;23.086;2023-07-13T13:13:56;7.38;;;3.90;;
37943;SDS011;23767;42.024;23.086;2023-07-13T13:18:55;7.75;;;3.60;;
37943;SDS011;23767;42.024;23.086;2023-07-13T13:21:23;12.52;;;3.72;;
37943;SDS011;23767;42.024;23.086;2023-07-13T13:23:49;8.85;;;3.78;;
37943;SDS011;23767;42.024;23.086;2023-07-13T13:26:17;9.18;;;3.92;;
37943;SDS011;23767;42.024;23.086;2023-07-13T13:28:44;6.25;;;3.58;;
37943;SDS011;23767;42.024;23.086;2023-07-13T13:31:11;8.20;;;4.03;;
37943;SDS011;23767;42.024;23.086;2023-07-13T13:33:38;8.07;;;3.67;;
37943;SDS011;23767;42.024;23.086;2023-07-13T13:36:12;11.05;;;4.07;;
37943;SDS011;23767;42.024;23.086;2023-07-13T13:38:40;8.48;;;3.78;;
37943;SDS011;23767;42.024;23.086;2023-07-13T13:41:07;7.32;;;3.60;;
37943;SDS011;23767;42.024;23.086;2023-07-13T13:43:35;7.30;;;3.40;;
37943;SDS011;23767;42.024;23.086;2023-07-13T13:46:01;8.18;;;3.60;;
37943;SDS011;23767;42.024;23.086;2023-07-13T13:48:29;8.48;;;3.45;;
37943;SDS011;23767;42.024;23.086;2023-07-13T13:50:56;7.57;;;3.33;;
37943;SDS011;23767;42.024;23.086;2023-07-13T13:53:23;8.07;;;3.85;;
37943;SDS011;23767;42.024;23.086;2023-07-13T13:55:49;10.07;;;3.92;;
37943;SDS011;23767;42.024;23.086;2023-07-13T13:58:17;6.40;;;3.55;;
37943;SDS011;23767;42.024;23.086;2023-07-13T14:00:43;10.65;;;3.50;;
37943;SDS011;23767;42.024;23.086;2023-07-13T14:03:20;9.95;;;3.42;;
37943;SDS011;23767;42.024;23.086;2023-07-13T14:05:47;7.85;;;3.13;;
37943;SDS011;23767;42.024;23.086;2023-07-13T14:08:14;7.10;;;3.60;;
37943;SDS011;23767;42.024;23.086;2023-07-13T14:10:40;8.48;;;3.20;;
37943;SDS011;23767;42.024;23.086;2023-07-13T14:13:07;8.80;;;3.28;;
37943;SDS011;23767;42.024;23.086;2023-07-13T14:15:41;9.48;;;3.40;;
37943;SDS011;23767;42.024;23.086;2023-07-13T14:18:07;8.85;;;3.10;;
37943;SDS011;23767;42.024;23.086;2023-07-13T14:20:34;7.78;;;2.90;;
37943;SDS011;23767;42.024;23.086;2023-07-13T14:23:00;8.55;;;3.47;;
37943;SDS011;23767;42.024;23.086;2023-07-13T14:25:26;5.72;;;2.58;;
37943;SDS011;23767;42.024;23.086;2023-07-13T14:27:57;8.13;;;3.30;;
37943;SDS011;23767;42.024;23.086;2023-07-13T14:30:24;7.88;;;3.20;;
37943;SDS011;23767;42.024;23.086;2023-07-13T14:32:50;9.98;;;2.95;;
37943;SDS011;23767;42.024;23.086;2023-07-13T14:35:17;7.30;;;3.20;;
37943;SDS011;23767;42.024;23.086;2023-07-13T14:37:45;10.93;;;2.75;;
37943;SDS011;23767;42.024;23.086;2023-07-13T14:40:15;7.57;;;3.15;;
37943;SDS011;23767;42.024;23.086;2023-07-13T14:42:41;6.80;;;2.63;;
37943;SDS011;23767;42.024;23.086;2023-07-13T14:45:12;9.45;;;2.90;;
37943;SDS011;23767;42.024;23.086;2023-07-13T14:47:38;12.75;;;3.05;;
37943;SDS011;23767;42.024;23.086;2023-07-13T14:50:04;8.20;;;3.05;;
37943;SDS011;23767;42.024;23.086;2023-07-13T14:52:30;8.00;;;2.92;;
37943;SDS011;23767;42.024;23.086;2023-07-13T14:54:56;7.78;;;2.65;;
37943;SDS011;23767;42.024;23.086;2023-07-13T14:57:22;7.10;;;3.00;;
37943;SDS011;23767;42.024;23.086;2023-07-13T14:59:48;5.75;;;2.85;;
37943;SDS011;23767;42.024;23.086;2023-07-13T15:02:30;7.00;;;2.83;;
37943;SDS011;23767;42.024;23.086;2023-07-13T15:04:57;10.95;;;2.92;;
37943;SDS011;23767;42.024;23.086;2023-07-13T15:07:24;9.57;;;3.08;;
37943;SDS011;23767;42.024;23.086;2023-07-13T15:09:50;13.82;;;3.17;;
37943;SDS011;23767;42.024;23.086;2023-07-13T15:12:16;9.38;;;3.13;;
37943;SDS011;23767;42.024;23.086;2023-07-13T15:14:42;7.32;;;2.83;;
37943;SDS011;23767;42.024;23.086;2023-07-13T15:17:22;8.52;;;3.25;;
37943;SDS011;23767;42.024;23.086;2023-07-13T15:19:49;7.45;;;3.10;;
37943;SDS011;23767;42.024;23.086;2023-07-13T15:22:15;7.05;;;2.90;;
37943;SDS011;23767;42.024;23.086;2023-07-13T15:24:41;7.45;;;2.85;;
37943;SDS011;23767;42.024;23.086;2023-07-13T15:27:11;6.07;;;2.70;;